Time;durP1;ratioP1;P1;durP2;ratioP2;P2;SDS_P1;SDS_P2;PMS_P1;PMS_P2;Temp;Humidity;BMP_temperature;BMP_pressure;BME280_temperature;BME280_humidity;BME280_pressure;Samples;Min_cycle;Max_cycle;Signal;HPM_P1;HPM_P2
2022/03/20 00:02:21;;;;;;;40.78;21.45;;;;;;;4.70;49.02;97358.13;5028197;28;20053;-77
2022/03/20 00:04:47;;;;;;;39.03;21.00;;;;;;;4.68;49.32;97357.56;5028532;28;20061;-76
2022/03/20 00:07:14;;;;;;;37.42;20.63;;;;;;;4.67;49.68;97353.25;5028225;28;20045;-76
2022/03/20 00:09:40;;;;;;;35.40;19.75;;;;;;;4.63;49.58;97347.53;5028332;28;20048;-75
2022/03/20 00:12:08;;;;;;;45.78;20.42;;;;;;;4.63;49.66;97357.50;5028527;28;20515;-75
2022/03/20 00:14:34;;;;;;;40.72;20.02;;;;;;;4.58;49.96;97343.97;5028677;28;20061;-77
2022/03/20 00:17:02;;;;;;;41.35;21.10;;;;;;;4.58;49.99;97343.97;5029285;28;20057;-76
2022/03/20 00:19:29;;;;;;;35.28;20.58;;;;;;;4.57;50.00;97340.47;5028258;28;20042;-75
2022/03/20 00:21:56;;;;;;;41.80;20.63;;;;;;;4.59;50.19;97345.59;5028603;28;20049;-76
2022/03/20 00:24:23;;;;;;;65.50;21.83;;;;;;;4.55;50.22;97339.91;5028350;28;20631;-76
2022/03/20 00:26:56;;;;;;;38.42;21.60;;;;;;;4.51;50.55;97337.97;5028188;28;20415;-76
2022/03/20 00:29:23;;;;;;;38.55;20.83;;;;;;;4.52;50.65;97340.41;5028744;28;20056;-75
2022/03/20 00:31:49;;;;;;;41.55;21.75;;;;;;;4.49;50.74;97340.94;5027406;28;20045;-76
2022/03/20 00:34:17;;;;;;;45.60;20.05;;;;;;;4.47;50.96;97342.25;5028884;28;20057;-76
2022/03/20 00:36:43;;;;;;;81.88;22.52;;;;;;;4.45;50.61;97335.22;5027925;28;20046;-75
2022/03/20 00:39:10;;;;;;;47.50;21.58;;;;;;;4.48;50.65;97327.69;5028708;28;20049;-76
2022/03/20 00:41:36;;;;;;;45.72;21.35;;;;;;;4.51;50.85;97340.69;5028108;28;20057;-76
2022/03/20 00:44:03;;;;;;;40.40;21.15;;;;;;;4.49;51.07;97329.31;5028366;28;20056;-76
2022/03/20 00:46:30;;;;;;;39.40;21.48;;;;;;;4.44;51.21;97339.00;5028300;28;20440;-76
2022/03/20 00:48:56;;;;;;;42.60;22.65;;;;;;;4.42;51.46;97338.41;5028164;28;20049;-76
2022/03/20 00:51:24;;;;;;;38.85;21.40;;;;;;;4.42;51.92;97333.03;5027829;28;20527;-76
2022/03/20 00:53:51;;;;;;;42.65;22.95;;;;;;;4.38;51.45;97334.59;5027914;28;20543;-76
2022/03/20 00:56:18;;;;;;;39.67;21.33;;;;;;;4.38;52.02;97345.38;5027905;28;20107;-74
2022/03/20 00:58:46;;;;;;;41.33;21.52;;;;;;;4.38;51.76;97344.56;5027976;28;20049;-74
2022/03/20 01:01:14;;;;;;;38.28;21.10;;;;;;;4.35;51.67;97345.91;5027424;28;20057;-73
2022/03/20 01:03:41;;;;;;;37.35;20.98;;;;;;;4.34;51.87;97348.88;5027102;28;20057;-76
2022/03/20 01:06:08;;;;;;;42.05;21.85;;;;;;;4.32;51.70;97349.09;5027658;28;20077;-73
2022/03/20 01:08:36;;;;;;;39.13;21.42;;;;;;;4.32;52.14;97346.41;5027845;28;20061;-76
2022/03/20 01:11:02;;;;;;;42.90;22.42;;;;;;;4.31;51.99;97354.75;5027793;28;20096;-75
2022/03/20 01:13:29;;;;;;;40.58;21.65;;;;;;;4.31;52.18;97355.56;5027950;28;20037;-74
2022/03/20 01:15:56;;;;;;;45.20;23.50;;;;;;;4.28;52.19;97356.09;5027920;28;20077;-73
2022/03/20 01:18:22;;;;;;;40.80;20.98;;;;;;;4.23;52.32;97345.25;5027538;28;20107;-74
2022/03/20 01:20:49;;;;;;;42.90;22.02;;;;;;;4.21;52.37;97344.66;5027183;28;20045;-76
2022/03/20 01:23:16;;;;;;;39.60;21.17;;;;;;;4.17;52.40;97349.75;5027962;28;20049;-75
2022/03/20 01:25:43;;;;;;;38.00;21.38;;;;;;;4.14;52.36;97355.66;5026850;28;20045;-74
2022/03/20 01:28:10;;;;;;;41.33;21.77;;;;;;;4.14;52.77;97357.53;5028037;28;20526;-74
2022/03/20 01:30:36;;;;;;;40.80;20.83;;;;;;;4.12;52.83;97352.41;5027470;28;20780;-74
2022/03/20 01:33:03;;;;;;;38.22;21.20;;;;;;;4.12;53.02;97344.31;5027328;28;20049;-74
2022/03/20 01:35:29;;;;;;;37.40;21.48;;;;;;;4.10;52.67;97349.13;5027342;28;20053;-74
2022/03/20 01:37:56;;;;;;;41.40;21.38;;;;;;;4.11;52.69;97344.56;5027458;28;20504;-76
2022/03/20 01:40:22;;;;;;;37.80;20.25;;;;;;;4.13;52.70;97347.84;5027381;28;20534;-77
2022/03/20 01:42:50;;;;;;;43.22;22.50;;;;;;;4.12;52.89;97354.25;5026786;28;20053;-75
2022/03/20 01:45:18;;;;;;;40.30;21.63;;;;;;;4.08;53.05;97350.47;5027116;28;20054;-74
2022/03/20 01:47:47;;;;;;;42.22;22.88;;;;;;;4.07;53.30;97354.19;5027033;28;20086;-74
2022/03/20 01:50:13;;;;;;;41.35;22.77;;;;;;;4.01;53.77;97352.53;5026885;28;20077;-74
2022/03/20 01:52:40;;;;;;;43.75;22.00;;;;;;;4.00;53.11;97351.72;5026110;28;20049;-76
2022/03/20 01:55:08;;;;;;;42.53;22.08;;;;;;;4.01;53.38;97339.03;5026874;28;20053;-73
2022/03/20 01:57:36;;;;;;;39.72;21.45;;;;;;;3.98;53.54;97339.56;5026754;28;20128;-74
2022/03/20 02:00:07;;;;;;;36.50;20.02;;;;;;;3.94;53.27;97333.84;5026990;28;20140;-74
2022/03/20 02:02:33;;;;;;;37.05;20.08;;;;;;;3.91;53.41;97340.56;5027138;28;20049;-75
2022/03/20 02:05:01;;;;;;;42.60;21.67;;;;;;;3.90;53.82;97338.91;5026529;28;20508;-76
2022/03/20 02:07:28;;;;;;;38.35;19.85;;;;;;;3.89;53.66;97347.25;5026634;28;20037;-74
2022/03/20 02:09:55;;;;;;;43.42;21.08;;;;;;;3.88;53.57;97349.16;5026660;28;20045;-73
2022/03/20 02:12:21;;;;;;;42.20;22.48;;;;;;;3.87;53.60;97338.63;5026894;28;20056;-75
2022/03/20 02:14:48;;;;;;;39.58;21.38;;;;;;;3.87;53.72;97338.63;5025658;28;20053;-74
2022/03/20 02:17:16;;;;;;;42.40;22.42;;;;;;;3.86;53.70;97342.38;5028955;28;20045;-76
2022/03/20 02:19:44;;;;;;;40.60;22.65;;;;;;;3.87;53.84;97334.06;5046276;28;20049;-76
2022/03/20 02:22:12;;;;;;;42.67;22.13;;;;;;;3.86;53.79;97336.97;5045832;28;20053;-74
2022/03/20 02:24:41;;;;;;;43.08;21.73;;;;;;;3.86;53.69;97345.06;5046012;28;20056;-74
2022/03/20 02:27:11;;;;;;;42.03;22.05;;;;;;;3.83;54.17;97338.31;5045296;28;20586;-75
2022/03/20 02:29:39;;;;;;;43.92;22.55;;;;;;;3.85;53.74;97336.16;5046866;28;20462;-76
2022/03/20 02:32:07;;;;;;;42.20;21.90;;;;;;;3.81;53.65;97335.06;5045300;28;20064;-76
2022/03/20 02:34:35;;;;;;;42.08;21.38;;;;;;;3.81;53.91;97337.75;5046297;28;20041;-75
2022/03/20 02:37:02;;;;;;;38.95;20.27;;;;;;;3.80;53.59;97336.09;5044992;28;20048;-76
2022/03/20 02:39:30;;;;;;;45.53;23.08;;;;;;;3.78;53.84;97340.13;5045693;28;20040;-75
2022/03/20 02:42:00;;;;;;;38.53;20.17;;;;;;;3.78;53.68;97335.53;5046299;28;20060;-76
2022/03/20 02:44:53;;;;;;;40.10;21.77;;;;;;;3.77;53.79;97330.41;5045985;28;20056;-76
2022/03/20 02:47:23;;;;;;;40.45;21.45;;;;;;;3.69;54.30;97330.84;5045561;28;20110;-76
2022/03/20 02:49:51;;;;;;;43.53;22.88;;;;;;;3.66;54.11;97332.97;5044967;28;20053;-76
2022/03/20 02:52:18;;;;;;;40.05;21.30;;;;;;;3.69;54.19;97331.66;5046281;28;20504;-75
2022/03/20 02:54:46;;;;;;;43.50;22.67;;;;;;;3.72;54.20;97336.56;5045612;28;20492;-76
2022/03/20 02:57:12;;;;;;;44.97;22.55;;;;;;;3.75;54.25;97340.59;5045743;28;20091;-76
2022/03/20 02:59:39;;;;;;;40.75;21.63;;;;;;;3.75;54.18;97341.44;5045860;28;20049;-76
2022/03/20 03:02:07;;;;;;;41.72;21.10;;;;;;;3.75;54.08;97344.13;5045521;28;20056;-75
2022/03/20 03:04:34;;;;;;;43.17;23.08;;;;;;;3.75;54.06;97336.03;5046017;28;20507;-74
2022/03/20 03:07:02;;;;;;;43.38;22.08;;;;;;;3.73;54.56;97343.56;5045804;28;20419;-74
2022/03/20 03:12:14;;;;;;;39.17;21.08;;;;;;;3.70;54.19;97349.44;5043824;28;20458;-74
2022/03/20 03:17:28;;;;;;;40.17;21.40;;;;;;;3.65;54.49;97357.44;5045025;28;20134;-74
2022/03/20 03:19:55;;;;;;;43.75;22.52;;;;;;;3.63;54.69;97348.81;5045882;28;20131;-73
2022/03/20 03:22:21;;;;;;;40.38;22.40;;;;;;;3.63;54.79;97355.00;5045860;28;22923;-74
2022/03/20 03:24:48;;;;;;;42.40;22.35;;;;;;;3.63;54.46;97362.28;5046162;28;20072;-74
2022/03/20 03:27:16;;;;;;;38.67;21.27;;;;;;;3.63;54.60;97364.97;5049902;28;20045;-73
2022/03/20 03:29:42;;;;;;;41.72;22.27;;;;;;;3.57;54.92;97361.41;5048561;28;20056;-73
2022/03/20 03:32:09;;;;;;;46.00;22.38;;;;;;;3.57;55.03;97366.78;5049862;28;20068;-74
2022/03/20 03:37:20;;;;;;;41.08;21.92;;;;;;;3.53;55.09;97371.03;5049813;28;20052;-74
2022/03/20 03:39:46;;;;;;;38.83;21.02;;;;;;;3.48;55.35;97364.75;5049649;28;20060;-73
2022/03/20 03:42:14;;;;;;;43.20;22.58;;;;;;;3.49;55.35;97369.06;5049568;28;20048;-74
2022/03/20 03:44:42;;;;;;;41.22;21.88;;;;;;;3.46;55.32;97367.72;5040978;28;20064;-74
2022/03/20 03:47:09;;;;;;;39.72;21.58;;;;;;;3.46;55.34;97370.41;5028911;28;20066;-75
2022/03/20 03:49:35;;;;;;;40.65;21.17;;;;;;;3.42;55.53;97371.13;5031061;28;20045;-73
2022/03/20 03:52:02;;;;;;;44.05;23.35;;;;;;;3.38;55.65;97363.53;5029089;28;20065;-75
2022/03/20 03:54:29;;;;;;;42.70;22.73;;;;;;;3.35;55.73;97366.75;5030806;28;20045;-75
2022/03/20 03:56:55;;;;;;;43.33;22.13;;;;;;;3.35;56.18;97368.63;5029367;28;20081;-75
2022/03/20 03:59:22;;;;;;;43.95;22.60;;;;;;;3.31;56.09;97371.00;5029753;28;20523;-75
2022/03/20 04:01:49;;;;;;;44.80;22.77;;;;;;;3.29;56.09;97370.44;5029353;28;20579;-75
2022/03/20 04:04:16;;;;;;;43.47;22.77;;;;;;;3.32;56.30;97369.09;5029204;28;20049;-73
2022/03/20 04:06:43;;;;;;;43.90;22.20;;;;;;;3.33;55.91;97378.81;5029796;28;20552;-73
2022/03/20 04:09:09;;;;;;;42.50;22.95;;;;;;;3.32;55.96;97375.31;5028353;28;20056;-73
2022/03/20 04:11:36;;;;;;;45.05;23.20;;;;;;;3.33;56.41;97376.94;5030298;28;20049;-74
2022/03/20 04:14:02;;;;;;;45.65;24.17;;;;;;;3.32;56.34;97380.69;5029924;28;20049;-75
2022/03/20 04:16:29;;;;;;;44.25;22.95;;;;;;;3.31;56.20;97381.75;5049379;28;20049;-76
2022/03/20 04:18:56;;;;;;;45.28;23.42;;;;;;;3.30;56.39;97387.41;5048711;28;20060;-75
2022/03/20 04:21:23;;;;;;;45.63;23.38;;;;;;;3.25;56.52;97385.44;5049101;28;20051;-73
2022/03/20 04:23:50;;;;;;;45.63;22.45;;;;;;;3.18;56.75;97384.78;5048577;28;20154;-73
2022/03/20 04:26:20;;;;;;;45.50;22.80;;;;;;;3.17;56.87;97382.34;5048953;28;20626;-73
2022/03/20 04:28:47;;;;;;;44.78;23.58;;;;;;;3.14;56.71;97389.84;5049316;28;20041;-73
2022/03/20 04:31:15;;;;;;;44.33;24.20;;;;;;;3.17;56.72;97396.59;5048289;28;20045;-73
2022/03/20 04:33:41;;;;;;;43.88;23.45;;;;;;;3.18;57.10;97390.16;5049404;28;20064;-73
2022/03/20 04:36:09;;;;;;;45.58;24.38;;;;;;;3.14;56.74;97397.09;5047174;28;20049;-73
2022/03/20 04:38:36;;;;;;;43.58;23.17;;;;;;;3.16;56.92;97403.06;5048276;28;20073;-73
2022/03/20 04:41:03;;;;;;;41.25;22.13;;;;;;;3.14;56.76;97405.19;5048052;28;20044;-73
2022/03/20 04:43:29;;;;;;;42.83;23.00;;;;;;;3.13;56.63;97414.28;5049123;28;20056;-74
2022/03/20 04:45:56;;;;;;;42.50;22.55;;;;;;;3.16;56.87;97419.19;5046426;28;20675;-74
2022/03/20 04:59:21;;;;;;;39.90;22.25;;;;;;;3.12;56.94;97431.50;5047454;28;20088;-74
2022/03/20 05:01:48;;;;;;;42.67;22.23;;;;;;;3.13;57.41;97435.81;5047581;28;20057;-74
2022/03/20 05:04:14;;;;;;;43.58;22.60;;;;;;;3.08;57.70;97433.88;5046440;28;20052;-74
2022/03/20 05:06:42;;;;;;;43.88;22.75;;;;;;;3.06;57.99;97438.69;5047651;28;20060;-74
2022/03/20 05:14:37;;;;;;;38.97;21.35;;;;;;;3.03;57.77;97446.44;5047270;28;20099;-73
2022/03/20 05:17:05;;;;;;;43.63;23.45;;;;;;;3.00;57.91;97441.53;5047278;28;20044;-74
2022/03/20 05:19:33;;;;;;;47.75;23.23;;;;;;;2.97;58.08;97452.78;5048209;28;20041;-74
2022/03/20 05:22:01;;;;;;;45.60;23.38;;;;;;;2.92;58.10;97452.69;5048127;28;20052;-74
2022/03/20 05:24:28;;;;;;;44.58;23.25;;;;;;;2.88;58.48;97449.69;5047302;28;20052;-74
2022/03/20 05:26:55;;;;;;;43.58;22.00;;;;;;;2.86;58.37;97451.78;5047977;28;20488;-74
2022/03/20 05:29:22;;;;;;;46.00;22.58;;;;;;;2.86;58.56;97457.97;5046876;28;20053;-74
2022/03/20 05:31:49;;;;;;;49.78;23.20;;;;;;;2.84;58.58;97460.09;5047847;28;20055;-74
2022/03/20 05:34:16;;;;;;;41.33;22.52;;;;;;;2.84;58.75;97460.09;5046656;28;20080;-74
2022/03/20 05:36:43;;;;;;;40.85;22.58;;;;;;;2.83;58.89;97463.84;5047934;28;20057;-74
2022/03/20 05:39:10;;;;;;;50.30;23.25;;;;;;;2.84;59.01;97459.28;5046519;28;20056;-74
2022/03/20 05:41:47;;;;;;;43.20;22.23;;;;;;;2.78;59.48;97450.31;5047491;28;20059;-74
2022/03/20 05:44:15;;;;;;;45.03;22.52;;;;;;;2.77;59.57;97459.44;5045334;28;20045;-74
2022/03/20 05:46:43;;;;;;;48.85;24.63;;;;;;;2.73;59.85;97460.16;5046738;28;20059;-74
2022/03/20 05:49:09;;;;;;;47.58;24.25;;;;;;;2.72;59.93;97451.28;5046837;28;20060;-74
2022/03/20 05:51:37;;;;;;;45.75;23.25;;;;;;;2.74;60.03;97454.53;5046302;28;20067;-74
2022/03/20 05:54:04;;;;;;;44.97;22.98;;;;;;;2.77;60.22;97459.44;5046814;28;20059;-74
2022/03/20 05:59:16;;;;;;;43.97;22.88;;;;;;;2.74;60.01;97470.66;5046798;28;20045;-74
2022/03/20 06:01:42;;;;;;;44.90;22.75;;;;;;;2.74;60.21;97464.47;5046902;28;20153;-74
2022/03/20 06:04:10;;;;;;;46.08;23.38;;;;;;;2.72;60.39;97472.78;5046983;28;20049;-74
2022/03/20 06:06:37;;;;;;;43.22;22.92;;;;;;;2.79;60.29;97468.06;5047214;28;20041;-73
2022/03/20 06:09:05;;;;;;;43.90;24.60;;;;;;;2.86;60.27;97468.72;5046459;28;20060;-74
2022/03/20 06:11:32;;;;;;;43.88;22.23;;;;;;;2.93;59.97;97473.16;5046482;28;20053;-73
2022/03/20 06:14:00;;;;;;;51.28;24.48;;;;;;;2.95;59.83;97474.53;5044008;28;20049;-73
2022/03/20 06:16:28;;;;;;;49.95;25.80;;;;;;;2.97;60.10;97469.72;5046894;28;20175;-74
2022/03/20 06:18:55;;;;;;;50.38;24.70;;;;;;;2.97;59.86;97471.59;5030471;28;20083;-75
2022/03/20 06:21:21;;;;;;;53.78;25.45;;;;;;;3.02;59.71;97474.38;5026694;28;20412;-75
2022/03/20 06:23:48;;;;;;;44.97;23.20;;;;;;;3.09;59.24;97473.19;5026611;28;20052;-75
2022/03/20 06:26:14;;;;;;;42.70;22.63;;;;;;;3.15;59.07;97482.16;5026132;28;20500;-75
2022/03/20 06:28:41;;;;;;;39.85;21.02;;;;;;;3.25;59.15;97481.53;5026380;28;20057;-75
2022/03/20 06:31:10;;;;;;;41.13;21.90;;;;;;;3.29;58.00;97488.03;5026253;28;20578;-74
2022/03/20 06:33:38;;;;;;;42.90;21.58;;;;;;;3.34;58.18;97485.44;5026753;28;20610;-75
2022/03/20 06:36:05;;;;;;;41.88;22.10;;;;;;;3.45;58.04;97487.25;5025515;28;20045;-75
2022/03/20 06:38:33;;;;;;;38.63;20.77;;;;;;;3.47;57.43;97489.69;5027045;28;20056;-74
2022/03/20 06:41:00;;;;;;;37.60;20.58;;;;;;;3.52;57.39;97498.69;5025735;28;20049;-75
2022/03/20 06:43:27;;;;;;;40.33;20.20;;;;;;;3.62;56.81;97496.16;5026706;28;20044;-74
2022/03/20 06:45:54;;;;;;;40.35;20.23;;;;;;;3.69;56.82;97505.94;5025840;28;20146;-75
2022/03/20 06:48:20;;;;;;;36.13;19.90;;;;;;;3.79;56.57;97509.59;5026065;28;20041;-74
2022/03/20 06:50:48;;;;;;;35.13;18.33;;;;;;;3.87;55.66;97513.78;5026187;28;20092;-75
2022/03/20 06:53:17;;;;;;;33.63;18.92;;;;;;;3.95;55.24;97512.53;5026157;28;20048;-74
2022/03/20 06:55:44;;;;;;;32.60;18.92;;;;;;;3.98;55.11;97510.16;5026306;28;20504;-74
2022/03/20 06:58:11;;;;;;;39.97;20.02;;;;;;;4.01;54.63;97511.53;5025158;28;20150;-77
2022/03/20 07:00:38;;;;;;;36.67;19.73;;;;;;;4.09;54.41;97521.91;5026321;28;20144;-74
2022/03/20 07:03:06;;;;;;;38.15;19.60;;;;;;;4.15;54.43;97518.22;5025447;28;20057;-74
2022/03/20 07:05:33;;;;;;;35.05;18.50;;;;;;;4.25;53.95;97523.75;5026485;28;20076;-74
2022/03/20 07:08:02;;;;;;;38.90;18.95;;;;;;;4.32;54.02;97521.69;5025896;28;20053;-74
2022/03/20 07:10:28;;;;;;;35.55;19.27;;;;;;;4.39;53.46;97525.03;5025908;28;20060;-75
2022/03/20 07:13:48;;;;;;;33.88;17.60;;;;;;;4.62;54.21;97521.25;5026304;28;20053;-75
2022/03/20 07:15:44;;;;;;;33.83;19.55;;;;;;;4.87;52.97;97526.16;5040741;28;20128;-75
2022/03/20 07:18:12;;;;;;;32.70;17.63;;;;;;;5.12;52.24;97524.81;5046276;28;20056;-74
2022/03/20 07:20:40;;;;;;;35.58;18.98;;;;;;;5.69;51.22;97535.03;5045044;28;20119;-74
2022/03/20 07:23:09;;;;;;;32.60;17.60;;;;;;;6.34;48.70;97535.81;5046111;28;20049;-74
2022/03/20 07:31:03;;;;;;;30.33;17.58;;;;;;;8.45;43.47;97534.84;5045939;28;20056;-74
2022/03/20 07:33:30;;;;;;;29.02;16.95;;;;;;;9.04;42.16;97536.81;5045787;28;20759;-75
2022/03/20 07:35:56;;;;;;;28.05;16.38;;;;;;;9.46;41.21;97532.78;5046159;28;20049;-76
2022/03/20 07:38:24;;;;;;;25.25;16.17;;;;;;;9.95;39.68;97534.59;5044949;28;20424;-75
2022/03/20 07:40:50;;;;;;;29.33;16.58;;;;;;;10.41;39.34;97534.22;5046128;28;20052;-74
2022/03/20 07:43:17;;;;;;;27.70;16.33;;;;;;;10.81;37.61;97534.88;5044901;28;20068;-75
2022/03/20 07:45:44;;;;;;;28.00;16.13;;;;;;;10.91;36.62;97541.03;5044790;28;20427;-75
2022/03/20 07:48:10;;;;;;;25.85;16.38;;;;;;;11.21;36.86;97531.63;5043270;28;20447;-76
2022/03/20 07:50:38;;;;;;;24.63;15.73;;;;;;;11.42;35.93;97531.34;5045963;28;20049;-75
2022/03/20 07:53:05;;;;;;;26.05;16.90;;;;;;;11.45;35.06;97533.50;5044953;28;20567;-75
2022/03/20 07:55:34;;;;;;;26.75;17.02;;;;;;;11.52;34.96;97533.91;5045424;28;20048;-74
2022/03/20 07:58:01;;;;;;;27.75;16.50;;;;;;;11.62;34.42;97544.69;5046081;28;20060;-74
2022/03/20 08:00:27;;;;;;;26.13;15.98;;;;;;;11.97;34.91;97550.75;5045060;28;20731;-75
2022/03/20 08:02:55;;;;;;;24.85;15.70;;;;;;;12.21;33.60;97548.69;5046355;28;20049;-74
2022/03/20 08:05:24;;;;;;;24.40;15.75;;;;;;;12.17;33.00;97546.88;5044727;28;20045;-75
2022/03/20 08:07:51;;;;;;;26.52;16.48;;;;;;;12.45;33.93;97545.00;5046073;28;20491;-74
2022/03/20 08:10:17;;;;;;;25.77;16.45;;;;;;;12.95;32.66;97548.72;5044848;28;20061;-74
2022/03/20 08:12:45;;;;;;;26.77;16.45;;;;;;;13.00;31.77;97550.53;5047880;28;20057;-73
2022/03/20 08:15:15;;;;;;;23.95;15.73;;;;;;;13.22;32.36;97547.91;5047606;28;20056;-75
2022/03/20 08:17:46;;;;;;;23.48;16.13;;;;;;;13.38;31.87;97555.78;5049403;28;20053;-75
2022/03/20 08:20:13;;;;;;;21.80;14.45;;;;;;;13.39;30.67;97557.41;5049285;28;20045;-75
2022/03/20 08:22:39;;;;;;;22.27;15.52;;;;;;;13.62;30.47;97556.31;5048958;28;20045;-73
2022/03/20 08:25:07;;;;;;;22.98;15.77;;;;;;;13.68;30.26;97560.59;5049272;28;20415;-73
2022/03/20 08:27:42;;;;;;;23.90;15.23;;;;;;;13.84;30.06;97559.13;5048485;28;20496;-74
2022/03/20 08:30:13;;;;;;;22.88;15.05;;;;;;;13.97;29.53;97551.16;5049079;28;20454;-75
2022/03/20 08:32:39;;;;;;;25.25;15.25;;;;;;;14.11;29.06;97554.66;5048876;28;20094;-77
2022/03/20 08:35:07;;;;;;;23.90;15.48;;;;;;;14.32;28.91;97553.00;5048729;28;20064;-75
2022/03/20 08:37:35;;;;;;;21.75;14.88;;;;;;;14.59;28.35;97551.25;5048366;28;20419;-75
2022/03/20 08:40:02;;;;;;;22.05;14.88;;;;;;;14.99;28.86;97559.50;5048319;28;20045;-74
2022/03/20 08:42:29;;;;;;;22.13;14.63;;;;;;;15.30;27.99;97549.28;5048916;28;20048;-75
2022/03/20 08:44:55;;;;;;;21.38;14.77;;;;;;;15.86;27.15;97560.50;5046931;28;20056;-75
2022/03/20 08:47:25;;;;;;;29.05;15.20;;;;;;;16.17;26.34;97561.16;5048665;28;20079;-74
2022/03/20 08:49:52;;;;;;;19.92;14.35;;;;;;;16.32;26.66;97557.09;5048152;28;20049;-74
2022/03/20 08:52:19;;;;;;;22.02;14.15;;;;;;;16.56;26.19;97553.00;5048516;28;20048;-75
2022/03/20 08:54:45;;;;;;;22.10;14.07;;;;;;;16.84;25.56;97548.72;5048115;28;20053;-75
2022/03/20 08:57:15;;;;;;;20.70;14.18;;;;;;;16.83;25.40;97547.13;5048160;28;20078;-75
2022/03/20 08:59:42;;;;;;;21.83;13.77;;;;;;;16.73;25.43;97541.97;5048148;28;20396;-73
2022/03/20 09:02:08;;;;;;;18.73;13.25;;;;;;;17.06;25.50;97549.59;5047886;28;20462;-73
2022/03/20 09:04:36;;;;;;;20.08;14.10;;;;;;;17.14;24.88;97551.53;5048429;28;20712;-73
2022/03/20 09:07:03;;;;;;;20.80;15.07;;;;;;;17.21;25.55;97552.59;5046812;28;20075;-72
2022/03/20 09:09:29;;;;;;;21.42;14.55;;;;;;;17.12;24.83;97546.38;5048493;28;20064;-75
2022/03/20 09:11:55;;;;;;;19.17;14.55;;;;;;;16.99;25.71;97547.38;5047711;28;20845;-73
2022/03/20 09:14:22;;;;;;;21.10;14.73;;;;;;;17.05;25.55;97550.75;5042869;28;20512;-73
2022/03/20 09:19:33;;;;;;;21.55;14.35;;;;;;;17.12;24.83;97551.88;5027903;28;20164;-75
2022/03/20 09:22:01;;;;;;;18.40;13.82;;;;;;;16.84;25.96;97556.97;5027881;28;20053;-75
2022/03/20 09:24:28;;;;;;;21.23;14.38;;;;;;;16.68;26.29;97561.38;5027245;28;20134;-75
2022/03/20 09:26:54;;;;;;;20.58;14.80;;;;;;;16.48;25.96;97559.31;5027853;28;20049;-76
2022/03/20 09:29:21;;;;;;;21.35;14.20;;;;;;;16.50;25.81;97568.88;5027002;28;20523;-78
2022/03/20 09:31:50;;;;;;;21.05;14.38;;;;;;;16.22;25.92;97568.41;5028265;28;20479;-75
2022/03/20 09:34:16;;;;;;;22.27;14.30;;;;;;;16.01;26.83;97568.28;5026693;28;20045;-76
2022/03/20 09:36:43;;;;;;;21.92;14.13;;;;;;;15.84;27.54;97571.03;5027807;28;20045;-75
2022/03/20 09:39:11;;;;;;;23.35;14.50;;;;;;;15.85;26.78;97565.19;5026671;28;20054;-76
2022/03/20 09:41:41;;;;;;;21.35;14.50;;;;;;;15.78;26.73;97564.88;5027895;28;20071;-76
2022/03/20 09:44:09;;;;;;;24.15;15.38;;;;;;;15.94;26.41;97565.22;5029104;28;20083;-76
2022/03/20 09:46:36;;;;;;;21.42;15.00;;;;;;;16.19;27.45;97558.09;5047238;28;20496;-75
2022/03/20 09:49:05;;;;;;;21.83;14.40;;;;;;;16.43;26.17;97558.34;5046971;28;20045;-77
2022/03/20 09:51:33;;;;;;;22.48;14.45;;;;;;;16.57;28.25;97546.38;5046766;28;20041;-73
2022/03/20 09:53:59;;;;;;;20.52;14.00;;;;;;;17.01;27.00;97547.03;5047952;28;20055;-73
2022/03/20 09:56:27;;;;;;;23.58;13.68;;;;;;;17.17;25.65;97543.44;5046194;28;20048;-74
2022/03/20 09:58:54;;;;;;;21.00;14.23;;;;;;;17.40;25.97;97556.91;5047825;28;20720;-74
2022/03/20 10:01:20;;;;;;;21.77;14.40;;;;;;;17.40;24.77;97556.91;5045943;28;20052;-75
2022/03/20 10:03:47;;;;;;;20.67;14.20;;;;;;;17.29;24.57;97553.72;5047119;28;20674;-74
2022/03/20 10:06:17;;;;;;;20.02;13.02;;;;;;;17.34;24.56;97555.47;5045199;28;20045;-75
2022/03/20 10:09:04;;;;;;;20.70;14.32;;;;;;;17.41;24.34;97553.78;5047164;28;20049;-75
2022/03/20 10:11:32;;;;;;;18.30;13.20;;;;;;;17.27;26.14;97547.72;5046504;28;20044;-74
2022/03/20 10:14:07;;;;;;;20.60;14.95;;;;;;;17.23;26.26;97549.53;5044467;28;20049;-75
2022/03/20 10:16:33;;;;;;;22.63;14.68;;;;;;;17.21;25.36;97549.06;5026778;28;20069;-74
2022/03/20 10:19:00;;;;;;;20.02;13.93;;;;;;;17.07;26.06;97545.72;5026615;28;20045;-74
2022/03/20 10:21:42;;;;;;;21.33;14.05;;;;;;;17.07;26.48;97551.22;5026733;28;20049;-74
2022/03/20 10:24:15;;;;;;;21.15;13.35;;;;;;;17.03;25.83;97558.53;5025018;28;20061;-74
2022/03/20 10:26:43;;;;;;;18.85;13.70;;;;;;;16.94;25.98;97558.56;5026020;28;20574;-74
2022/03/20 10:29:15;;;;;;;19.70;13.60;;;;;;;16.65;25.39;97565.59;5026202;28;20672;-76
2022/03/20 10:31:49;;;;;;;18.95;13.75;;;;;;;16.49;26.11;97558.19;5026240;28;20049;-78
2022/03/20 10:34:16;;;;;;;17.70;12.77;;;;;;;16.46;26.59;97567.09;5026021;28;20508;-77
2022/03/20 10:36:43;;;;;;;18.38;13.50;;;;;;;16.31;26.33;97566.47;5025249;28;20049;-74
2022/03/20 10:39:11;;;;;;;20.63;14.75;;;;;;;16.17;27.33;97560.34;5026509;28;20057;-77
2022/03/20 10:41:39;;;;;;;20.08;13.90;;;;;;;15.99;26.88;97569.75;5026126;28;20053;-76
2022/03/20 10:44:15;;;;;;;20.58;13.15;;;;;;;15.88;28.00;97567.31;5028806;28;20496;-75
2022/03/20 10:46:42;;;;;;;22.02;14.20;;;;;;;15.76;27.30;97572.63;5045991;28;20052;-74
2022/03/20 10:49:11;;;;;;;20.67;13.95;;;;;;;15.75;27.11;97570.19;5045298;28;20047;-74
2022/03/20 10:51:40;;;;;;;21.27;13.70;;;;;;;15.77;27.85;97574.25;5046494;28;20052;-77
2022/03/20 10:54:10;;;;;;;20.45;13.98;;;;;;;15.83;27.54;97578.47;5045265;28;20801;-77
2022/03/20 10:56:37;;;;;;;20.95;13.73;;;;;;;15.68;27.72;97573.44;5046312;28;20044;-77
2022/03/20 10:59:15;;;;;;;20.20;14.27;;;;;;;15.56;28.08;97568.53;5045004;28;20059;-76
2022/03/20 11:01:44;;;;;;;23.17;14.35;;;;;;;15.50;27.46;97561.56;5046534;28;20052;-77
2022/03/20 11:04:12;;;;;;;20.67;14.27;;;;;;;15.49;28.60;97561.91;5045166;28;20080;-77
2022/03/20 11:06:41;;;;;;;22.67;13.65;;;;;;;15.61;28.62;97562.09;5046063;28;20052;-76
2022/03/20 11:09:08;;;;;;;26.33;15.10;;;;;;;15.70;28.65;97554.69;5045301;28;20080;-76
2022/03/20 11:11:38;;;;;;;22.70;14.35;;;;;;;15.68;28.84;97559.69;5046244;28;20056;-77
2022/03/20 11:14:06;;;;;;;20.67;13.45;;;;;;;15.67;27.10;97552.59;5042996;28;20049;-74
2022/03/20 11:16:37;;;;;;;20.27;12.98;;;;;;;15.63;26.33;97557.13;5025590;28;20045;-75
2022/03/20 11:19:08;;;;;;;20.17;13.52;;;;;;;15.61;26.66;97559.34;5026318;28;20445;-76
2022/03/20 11:21:37;;;;;;;19.20;13.25;;;;;;;15.75;26.75;97565.50;5025833;28;20049;-74
2022/03/20 11:24:05;;;;;;;20.95;14.52;;;;;;;15.78;27.56;97567.63;5024723;28;20046;-77
2022/03/20 11:26:33;;;;;;;20.13;13.63;;;;;;;15.58;27.55;97559.97;5025064;28;20050;-76
2022/03/20 11:29:06;;;;;;;40.45;16.17;;;;;;;15.53;27.44;97555.44;5024684;28;20189;-74
2022/03/20 11:31:36;;;;;;;;;;;;;;;15.65;28.00;97549.34;5025647;28;20049;-77
2022/03/20 11:34:05;;;;;;;21.27;13.70;;;;;;;15.68;27.41;97554.22;5025019;28;19948;-77
2022/03/20 11:36:32;;;;;;;23.13;14.73;;;;;;;15.77;26.39;97556.97;5025712;28;20142;-76
2022/03/20 11:39:10;;;;;;;24.38;14.02;;;;;;;15.72;26.85;97562.63;5025523;28;20057;-77
2022/03/20 11:41:37;;;;;;;27.48;14.90;;;;;;;15.77;26.36;97546.78;5025579;28;20055;-77
2022/03/20 11:44:15;;;;;;;26.30;14.40;;;;;;;15.75;27.44;97554.53;5016846;28;20562;-77
2022/03/20 11:46:45;;;;;;;19.45;13.77;;;;;;;15.79;27.47;97547.25;5060506;28;20068;-75
2022/03/20 11:49:22;;;;;;;19.55;13.20;;;;;;;15.98;27.14;97546.16;5049188;28;20099;-75
2022/03/20 11:51:57;;;;;;;21.50;13.25;;;;;;;16.23;27.12;97548.03;5048380;28;20140;-76
2022/03/20 11:54:34;;;;;;;18.73;12.75;;;;;;;16.34;25.60;97552.09;5049305;28;20407;-77
2022/03/20 11:57:01;;;;;;;19.60;12.52;;;;;;;16.29;25.46;97552.25;5048149;28;20588;-76
2022/03/20 11:59:45;;;;;;;18.25;13.50;;;;;;;16.41;28.92;97548.84;5049532;28;20051;-76
2022/03/20 12:02:15;;;;;;;19.90;13.15;;;;;;;16.63;26.38;97556.84;5047727;28;20049;-75